Carthage, MO

10:36 PM CDT en Marzo 25, 2017 (GMT -0500)
Carthage Junior High School | | Change Station

Alt 997 ft 37.17 °N, 94.31 °W | Updated 33 seconds ago

Nublado
Nublado
46.4 ° F
Sensación térmica 42 ° F
N
7.8
Viento Variable Viento desde SO

Hoy
Alta -- | Baja -- ° F
--% Posibilidad de precipitaciones
Ayer
Alta -- | Baja -- ° F
Precip. -- pul
Presión 29.94 pul
Visibilidad 10.0 Millas
Nubes Nublado 1100 ft
Vientos helados 42 ° F
Punto de rocío 46 ° F
Humedad 97%
Precipitaciones 0.87 pul
Espesor de la nieve No disponible.
7:12 AM 7:33 PM
Creciente menguante, 5% visible
METAR KJLN 260253Z AUTO 25009KT 10SM OVC011 08/07 A2993 RMK AO2 SLP136 T00830067 51008
Presión 29.94 pul
Visibilidad 10.0 Millas
Nubes Nublado 1100 ft
Vientos helados 42 ° F
Punto de rocío 46 ° F
Humedad 97%
Precipitaciones 0.87 pul
Espesor de la nieve No disponible.
7:12 AM 7:33 PM
Creciente menguante, 5% visible
METAR KJLN 260253Z AUTO 25009KT 10SM OVC011 08/07 A2993 RMK AO2 SLP136 T00830067 51008

Get Severe Weather Alerts

Thanks for signing up!

Be on the lookout for a verification email in your inbox.

You'll start receiving the daily forecast at 8 AM.

×

10-Day Weather Forecast

Almanac

Astronomía

Mar. 25, 2017 Salida Puesta
Hora real
Crepúsculo civil
Crepúsculo náutico
Crepúsculo astronómico
Luna
Horas de luz
Horas de luz
Tomorrow will be .
, % of the Moon is Illuminated

Extremos de hoy

Máximos del estado Bajos del estado

Community

WunderPhotos

Upload Photos

1,962,540 ¡fotos cargadas!

WunderBlog® & News

Nearby

Calidad del aire

  Calidad del aire Índice AQ Contaminante
Not available.

Grosos de nieve

Estación Profundido Altura

Actividad de terremotos

Ciudad Distance Mag. Tiempo y dato
Magnitud mínima muestra es 2,5.

Actividad de terremotos

Ciudad Distance Mag. Tiempo y dato
Magnitud mínima muestra es 2,5.

Temperaturas de aguas costeras

Lugar Temperatura

Stations

Estaciones meteorológicas cercanas

Ubicación de la estación Temp. Vientos helados Punto de rocío Humedad Viento Precip. Alt Actualizado Tipo
                   

Watches & Warnings

There are currently no watches in effect.